sensor_id;sensor_type;location;lat;lon;timestamp;temperature;humidity
27072;DHT22;14613;46.308;25.288;2022-08-21T00:00:19;23.50;81.80
27072;DHT22;14613;46.308;25.288;2022-08-21T00:02:49;23.50;82.00
27072;DHT22;14613;46.308;25.288;2022-08-21T00:05:16;23.50;82.20
27072;DHT22;14613;46.308;25.288;2022-08-21T00:07:43;23.50;82.20
27072;DHT22;14613;46.308;25.288;2022-08-21T00:10:09;23.50;82.40
27072;DHT22;14613;46.308;25.288;2022-08-21T00:12:34;23.50;82.40
27072;DHT22;14613;46.308;25.288;2022-08-21T00:15:00;23.50;82.40
27072;DHT22;14613;46.308;25.288;2022-08-21T00:17:26;23.50;82.40
27072;DHT22;14613;46.308;25.288;2022-08-21T00:19:52;23.50;82.50
27072;DHT22;14613;46.308;25.288;2022-08-21T00:22:18;23.50;82.50
27072;DHT22;14613;46.308;25.288;2022-08-21T00:24:43;23.50;82.70
27072;DHT22;14613;46.308;25.288;2022-08-21T00:27:09;23.50;82.70
27072;DHT22;14613;46.308;25.288;2022-08-21T00:29:54;23.50;82.80
27072;DHT22;14613;46.308;25.288;2022-08-21T00:32:23;23.50;83.10
27072;DHT22;14613;46.308;25.288;2022-08-21T00:34:50;23.50;82.80
27072;DHT22;14613;46.308;25.288;2022-08-21T00:37:16;23.50;82.80
27072;DHT22;14613;46.308;25.288;2022-08-21T00:39:42;23.50;82.70
27072;DHT22;14613;46.308;25.288;2022-08-21T00:42:09;23.50;82.70
27072;DHT22;14613;46.308;25.288;2022-08-21T00:44:35;23.50;82.70
27072;DHT22;14613;46.308;25.288;2022-08-21T00:47:01;23.50;82.80
27072;DHT22;14613;46.308;25.288;2022-08-21T00:49:26;23.50;82.80
27072;DHT22;14613;46.308;25.288;2022-08-21T00:51:57;23.50;82.80
27072;DHT22;14613;46.308;25.288;2022-08-21T00:54:26;23.50;83.10
27072;DHT22;14613;46.308;25.288;2022-08-21T00:57:07;23.50;83.00
27072;DHT22;14613;46.308;25.288;2022-08-21T00:59:37;23.50;83.30
27072;DHT22;14613;46.308;25.288;2022-08-21T01:02:06;23.50;83.10
27072;DHT22;14613;46.308;25.288;2022-08-21T01:04:33;23.40;83.10
27072;DHT22;14613;46.308;25.288;2022-08-21T01:06:59;23.40;83.10
27072;DHT22;14613;46.308;25.288;2022-08-21T01:09:25;23.40;83.20
27072;DHT22;14613;46.308;25.288;2022-08-21T01:11:51;23.40;83.30
27072;DHT22;14613;46.308;25.288;2022-08-21T01:14:17;23.50;83.40
27072;DHT22;14613;46.308;25.288;2022-08-21T01:16:47;23.50;83.40
27072;DHT22;14613;46.308;25.288;2022-08-21T01:19:14;23.50;83.40
27072;DHT22;14613;46.308;25.288;2022-08-21T01:21:42;23.50;83.20
27072;DHT22;14613;46.308;25.288;2022-08-21T01:24:08;23.50;83.10
27072;DHT22;14613;46.308;25.288;2022-08-21T01:26:35;23.50;82.80
27072;DHT22;14613;46.308;25.288;2022-08-21T01:31:51;23.50;82.80
27072;DHT22;14613;46.308;25.288;2022-08-21T01:34:17;23.50;82.40
27072;DHT22;14613;46.308;25.288;2022-08-21T01:36:45;23.50;82.40
27072;DHT22;14613;46.308;25.288;2022-08-21T01:39:11;23.40;82.40
27072;DHT22;14613;46.308;25.288;2022-08-21T01:41:37;23.40;82.40
27072;DHT22;14613;46.308;25.288;2022-08-21T01:44:03;23.30;82.30
27072;DHT22;14613;46.308;25.288;2022-08-21T01:46:30;23.30;82.40
27072;DHT22;14613;46.308;25.288;2022-08-21T01:48:55;23.30;82.40
27072;DHT22;14613;46.308;25.288;2022-08-21T01:51:21;23.30;82.30
27072;DHT22;14613;46.308;25.288;2022-08-21T01:53:47;23.20;82.20
27072;DHT22;14613;46.308;25.288;2022-08-21T01:56:15;23.20;82.20
27072;DHT22;14613;46.308;25.288;2022-08-21T01:58:43;23.20;82.30
27072;DHT22;14613;46.308;25.288;2022-08-21T02:01:09;23.10;82.30
27072;DHT22;14613;46.308;25.288;2022-08-21T02:03:35;23.00;82.30
27072;DHT22;14613;46.308;25.288;2022-08-21T02:06:02;23.00;82.50
27072;DHT22;14613;46.308;25.288;2022-08-21T02:08:28;22.90;82.60
27072;DHT22;14613;46.308;25.288;2022-08-21T02:10:54;22.90;82.80
27072;DHT22;14613;46.308;25.288;2022-08-21T02:13:20;22.80;82.80
27072;DHT22;14613;46.308;25.288;2022-08-21T02:15:46;22.80;82.90
27072;DHT22;14613;46.308;25.288;2022-08-21T02:18:12;22.80;82.90
27072;DHT22;14613;46.308;25.288;2022-08-21T02:20:45;22.70;82.90
27072;DHT22;14613;46.308;25.288;2022-08-21T02:23:12;22.70;83.20
27072;DHT22;14613;46.308;25.288;2022-08-21T02:25:38;22.60;84.00
27072;DHT22;14613;46.308;25.288;2022-08-21T02:28:11;22.60;83.20
27072;DHT22;14613;46.308;25.288;2022-08-21T02:30:40;22.50;83.40
27072;DHT22;14613;46.308;25.288;2022-08-21T02:33:08;22.50;83.40
27072;DHT22;14613;46.308;25.288;2022-08-21T02:35:35;22.40;83.50
27072;DHT22;14613;46.308;25.288;2022-08-21T02:38:06;22.40;83.70
27072;DHT22;14613;46.308;25.288;2022-08-21T02:40:35;22.40;83.90
27072;DHT22;14613;46.308;25.288;2022-08-21T02:43:02;22.30;83.80
27072;DHT22;14613;46.308;25.288;2022-08-21T02:45:30;22.30;83.90
27072;DHT22;14613;46.308;25.288;2022-08-21T02:47:58;22.30;84.00
27072;DHT22;14613;46.308;25.288;2022-08-21T02:50:30;22.20;84.10
27072;DHT22;14613;46.308;25.288;2022-08-21T02:52:57;22.20;84.40
27072;DHT22;14613;46.308;25.288;2022-08-21T02:55:24;22.20;84.30
27072;DHT22;14613;46.308;25.288;2022-08-21T02:57:52;22.20;84.40
27072;DHT22;14613;46.308;25.288;2022-08-21T03:00:18;22.10;84.40
27072;DHT22;14613;46.308;25.288;2022-08-21T03:02:47;22.10;84.50
27072;DHT22;14613;46.308;25.288;2022-08-21T03:05:14;22.10;84.50
27072;DHT22;14613;46.308;25.288;2022-08-21T03:07:42;22.10;84.60
27072;DHT22;14613;46.308;25.288;2022-08-21T03:10:08;22.10;84.60
27072;DHT22;14613;46.308;25.288;2022-08-21T03:12:34;22.00;84.60
27072;DHT22;14613;46.308;25.288;2022-08-21T03:15:06;22.00;84.70
27072;DHT22;14613;46.308;25.288;2022-08-21T03:17:32;21.90;84.90
27072;DHT22;14613;46.308;25.288;2022-08-21T03:19:59;21.90;85.80
27072;DHT22;14613;46.308;25.288;2022-08-21T03:22:25;21.90;85.00
27072;DHT22;14613;46.308;25.288;2022-08-21T03:24:50;21.90;85.20
27072;DHT22;14613;46.308;25.288;2022-08-21T03:27:16;21.80;85.30
27072;DHT22;14613;46.308;25.288;2022-08-21T03:29:42;21.80;86.20
27072;DHT22;14613;46.308;25.288;2022-08-21T03:32:08;21.80;85.50
27072;DHT22;14613;46.308;25.288;2022-08-21T03:34:38;21.80;85.60
27072;DHT22;14613;46.308;25.288;2022-08-21T03:37:06;21.80;85.80
27072;DHT22;14613;46.308;25.288;2022-08-21T03:39:32;21.80;85.90
27072;DHT22;14613;46.308;25.288;2022-08-21T03:41:58;21.80;85.90
27072;DHT22;14613;46.308;25.288;2022-08-21T03:44:25;21.80;86.00
27072;DHT22;14613;46.308;25.288;2022-08-21T03:46:53;21.80;86.10
27072;DHT22;14613;46.308;25.288;2022-08-21T03:49:19;21.80;86.10
27072;DHT22;14613;46.308;25.288;2022-08-21T03:51:44;21.80;86.30
27072;DHT22;14613;46.308;25.288;2022-08-21T03:54:10;21.80;86.40
27072;DHT22;14613;46.308;25.288;2022-08-21T03:56:36;21.90;86.50
27072;DHT22;14613;46.308;25.288;2022-08-21T03:59:02;22.00;86.70
27072;DHT22;14613;46.308;25.288;2022-08-21T04:01:29;22.10;86.80
27072;DHT22;14613;46.308;25.288;2022-08-21T04:03:55;22.10;86.80
27072;DHT22;14613;46.308;25.288;2022-08-21T04:06:20;22.20;87.00
27072;DHT22;14613;46.308;25.288;2022-08-21T04:08:46;22.30;87.00
27072;DHT22;14613;46.308;25.288;2022-08-21T04:11:12;22.40;86.90
27072;DHT22;14613;46.308;25.288;2022-08-21T04:13:38;22.50;86.90
27072;DHT22;14613;46.308;25.288;2022-08-21T04:16:06;22.70;87.00
27072;DHT22;14613;46.308;25.288;2022-08-21T04:18:32;22.90;86.90
27072;DHT22;14613;46.308;25.288;2022-08-21T04:20:58;23.10;86.70
27072;DHT22;14613;46.308;25.288;2022-08-21T04:23:25;23.30;86.60
27072;DHT22;14613;46.308;25.288;2022-08-21T04:25:53;23.50;86.30
27072;DHT22;14613;46.308;25.288;2022-08-21T04:28:19;23.70;86.00
27072;DHT22;14613;46.308;25.288;2022-08-21T04:30:45;23.90;85.70
27072;DHT22;14613;46.308;25.288;2022-08-21T04:33:12;24.10;85.30
27072;DHT22;14613;46.308;25.288;2022-08-21T04:35:38;24.30;84.80
27072;DHT22;14613;46.308;25.288;2022-08-21T04:38:03;24.60;84.40
27072;DHT22;14613;46.308;25.288;2022-08-21T04:40:29;24.80;83.70
27072;DHT22;14613;46.308;25.288;2022-08-21T04:43:02;25.00;82.70
27072;DHT22;14613;46.308;25.288;2022-08-21T04:45:31;25.20;82.20
27072;DHT22;14613;46.308;25.288;2022-08-21T04:47:59;25.40;81.60
27072;DHT22;14613;46.308;25.288;2022-08-21T04:50:33;25.50;80.60
27072;DHT22;14613;46.308;25.288;2022-08-21T04:53:00;25.60;79.90
27072;DHT22;14613;46.308;25.288;2022-08-21T04:55:26;25.70;79.40
27072;DHT22;14613;46.308;25.288;2022-08-21T04:57:54;25.70;78.80
27072;DHT22;14613;46.308;25.288;2022-08-21T05:00:22;25.70;78.30
27072;DHT22;14613;46.308;25.288;2022-08-21T05:02:50;25.80;78.00
27072;DHT22;14613;46.308;25.288;2022-08-21T05:05:19;25.80;77.70
27072;DHT22;14613;46.308;25.288;2022-08-21T05:07:45;25.80;77.50
27072;DHT22;14613;46.308;25.288;2022-08-21T05:10:12;25.80;77.40
27072;DHT22;14613;46.308;25.288;2022-08-21T05:12:39;25.80;77.10
27072;DHT22;14613;46.308;25.288;2022-08-21T05:15:07;25.90;77.10
27072;DHT22;14613;46.308;25.288;2022-08-21T05:17:33;26.00;76.90
27072;DHT22;14613;46.308;25.288;2022-08-21T05:19:59;26.10;76.50
27072;DHT22;14613;46.308;25.288;2022-08-21T05:22:26;26.10;76.20
27072;DHT22;14613;46.308;25.288;2022-08-21T05:24:51;26.20;76.00
27072;DHT22;14613;46.308;25.288;2022-08-21T05:27:18;26.20;75.80
27072;DHT22;14613;46.308;25.288;2022-08-21T05:29:43;26.30;75.70
27072;DHT22;14613;46.308;25.288;2022-08-21T05:32:10;26.30;75.80
27072;DHT22;14613;46.308;25.288;2022-08-21T05:34:37;26.50;76.10
27072;DHT22;14613;46.308;25.288;2022-08-21T05:37:03;26.70;75.80
27072;DHT22;14613;46.308;25.288;2022-08-21T05:39:31;26.90;75.20
27072;DHT22;14613;46.308;25.288;2022-08-21T05:41:57;27.10;74.90
27072;DHT22;14613;46.308;25.288;2022-08-21T05:44:23;27.20;74.30
27072;DHT22;14613;46.308;25.288;2022-08-21T05:46:48;27.20;73.60
27072;DHT22;14613;46.308;25.288;2022-08-21T05:49:14;27.20;73.30
27072;DHT22;14613;46.308;25.288;2022-08-21T05:51:41;27.20;73.10
27072;DHT22;14613;46.308;25.288;2022-08-21T05:54:07;27.10;72.90
27072;DHT22;14613;46.308;25.288;2022-08-21T05:56:33;27.10;72.90
27072;DHT22;14613;46.308;25.288;2022-08-21T05:58:59;27.00;72.80
27072;DHT22;14613;46.308;25.288;2022-08-21T06:01:25;27.00;72.80
27072;DHT22;14613;46.308;25.288;2022-08-21T06:03:51;27.00;73.10
27072;DHT22;14613;46.308;25.288;2022-08-21T06:06:16;27.20;73.40
27072;DHT22;14613;46.308;25.288;2022-08-21T06:08:43;27.50;73.40
27072;DHT22;14613;46.308;25.288;2022-08-21T06:11:09;27.70;72.60
27072;DHT22;14613;46.308;25.288;2022-08-21T06:13:35;27.80;71.80
27072;DHT22;14613;46.308;25.288;2022-08-21T06:16:14;27.80;71.40
27072;DHT22;14613;46.308;25.288;2022-08-21T06:18:40;27.90;71.50
27072;DHT22;14613;46.308;25.288;2022-08-21T06:21:07;28.10;71.50
27072;DHT22;14613;46.308;25.288;2022-08-21T06:23:34;28.20;71.10
27072;DHT22;14613;46.308;25.288;2022-08-21T06:26:05;28.30;70.60
27072;DHT22;14613;46.308;25.288;2022-08-21T06:28:32;28.40;70.00
27072;DHT22;14613;46.308;25.288;2022-08-21T06:30:58;28.30;69.40
27072;DHT22;14613;46.308;25.288;2022-08-21T06:33:24;28.30;69.30
27072;DHT22;14613;46.308;25.288;2022-08-21T06:35:50;28.30;69.30
27072;DHT22;14613;46.308;25.288;2022-08-21T06:38:16;28.30;69.30
27072;DHT22;14613;46.308;25.288;2022-08-21T06:40:42;28.20;69.20
27072;DHT22;14613;46.308;25.288;2022-08-21T06:43:14;28.20;69.20
27072;DHT22;14613;46.308;25.288;2022-08-21T06:45:40;28.20;69.00
27072;DHT22;14613;46.308;25.288;2022-08-21T06:48:05;28.30;68.90
27072;DHT22;14613;46.308;25.288;2022-08-21T06:50:34;28.20;68.70
27072;DHT22;14613;46.308;25.288;2022-08-21T06:53:05;28.10;68.60
27072;DHT22;14613;46.308;25.288;2022-08-21T06:55:32;28.10;68.50
27072;DHT22;14613;46.308;25.288;2022-08-21T06:57:59;28.00;68.70
27072;DHT22;14613;46.308;25.288;2022-08-21T07:00:25;28.00;68.70
27072;DHT22;14613;46.308;25.288;2022-08-21T07:02:51;28.00;68.70
27072;DHT22;14613;46.308;25.288;2022-08-21T07:05:17;27.90;68.60
27072;DHT22;14613;46.308;25.288;2022-08-21T07:07:43;27.80;68.60
27072;DHT22;14613;46.308;25.288;2022-08-21T07:10:09;27.70;68.90
27072;DHT22;14613;46.308;25.288;2022-08-21T07:12:35;27.70;69.30
27072;DHT22;14613;46.308;25.288;2022-08-21T07:15:03;27.70;69.30
27072;DHT22;14613;46.308;25.288;2022-08-21T07:17:29;27.70;69.00
27072;DHT22;14613;46.308;25.288;2022-08-21T07:19:54;27.60;69.00
27072;DHT22;14613;46.308;25.288;2022-08-21T07:22:20;27.50;69.20
27072;DHT22;14613;46.308;25.288;2022-08-21T07:24:46;27.50;69.20
27072;DHT22;14613;46.308;25.288;2022-08-21T07:27:13;27.50;69.40
27072;DHT22;14613;46.308;25.288;2022-08-21T07:29:38;27.50;69.30
27072;DHT22;14613;46.308;25.288;2022-08-21T07:32:05;27.40;69.20
27072;DHT22;14613;46.308;25.288;2022-08-21T07:34:31;27.40;69.20
27072;DHT22;14613;46.308;25.288;2022-08-21T07:36:57;27.40;69.30
27072;DHT22;14613;46.308;25.288;2022-08-21T07:39:24;27.40;69.40
27072;DHT22;14613;46.308;25.288;2022-08-21T07:41:50;27.50;69.40
27072;DHT22;14613;46.308;25.288;2022-08-21T07:44:16;27.60;69.40
27072;DHT22;14613;46.308;25.288;2022-08-21T07:46:42;27.70;69.60
27072;DHT22;14613;46.308;25.288;2022-08-21T07:49:07;27.80;69.50
27072;DHT22;14613;46.308;25.288;2022-08-21T07:51:33;27.90;69.10
27072;DHT22;14613;46.308;25.288;2022-08-21T07:54:00;28.00;69.70
27072;DHT22;14613;46.308;25.288;2022-08-21T07:56:26;28.10;68.90
27072;DHT22;14613;46.308;25.288;2022-08-21T07:58:53;28.20;68.80
27072;DHT22;14613;46.308;25.288;2022-08-21T08:01:19;28.40;68.80
27072;DHT22;14613;46.308;25.288;2022-08-21T08:03:46;28.60;68.70
27072;DHT22;14613;46.308;25.288;2022-08-21T08:06:12;29.00;68.70
27072;DHT22;14613;46.308;25.288;2022-08-21T08:08:42;29.30;68.10
27072;DHT22;14613;46.308;25.288;2022-08-21T08:11:09;29.60;66.90
27072;DHT22;14613;46.308;25.288;2022-08-21T08:13:45;29.90;66.70
27072;DHT22;14613;46.308;25.288;2022-08-21T08:16:12;30.10;65.80
27072;DHT22;14613;46.308;25.288;2022-08-21T08:18:38;30.40;65.50
27072;DHT22;14613;46.308;25.288;2022-08-21T08:21:04;30.70;65.10
27072;DHT22;14613;46.308;25.288;2022-08-21T08:23:31;31.00;64.50
27072;DHT22;14613;46.308;25.288;2022-08-21T08:25:58;31.30;64.00
27072;DHT22;14613;46.308;25.288;2022-08-21T08:28:24;31.60;63.30
27072;DHT22;14613;46.308;25.288;2022-08-21T08:30:50;31.90;62.60
27072;DHT22;14613;46.308;25.288;2022-08-21T08:33:18;32.10;61.90
27072;DHT22;14613;46.308;25.288;2022-08-21T08:35:49;32.30;61.00
27072;DHT22;14613;46.308;25.288;2022-08-21T08:38:16;32.50;61.10
27072;DHT22;14613;46.308;25.288;2022-08-21T08:43:29;32.90;59.00
27072;DHT22;14613;46.308;25.288;2022-08-21T08:45:58;33.10;59.00
27072;DHT22;14613;46.308;25.288;2022-08-21T08:51:16;33.30;57.90
27072;DHT22;14613;46.308;25.288;2022-08-21T08:53:57;33.40;58.00
27072;DHT22;14613;46.308;25.288;2022-08-21T08:56:30;33.50;57.30
27072;DHT22;14613;46.308;25.288;2022-08-21T08:59:02;33.60;57.20
27072;DHT22;14613;46.308;25.288;2022-08-21T09:01:32;33.60;56.90
27072;DHT22;14613;46.308;25.288;2022-08-21T09:04:18;33.70;56.90
27072;DHT22;14613;46.308;25.288;2022-08-21T09:12:29;34.10;56.00
27072;DHT22;14613;46.308;25.288;2022-08-21T09:15:10;34.00;55.60
27072;DHT22;14613;46.308;25.288;2022-08-21T09:25:34;34.40;55.30
27072;DHT22;14613;46.308;25.288;2022-08-21T09:28:08;34.50;54.80
27072;DHT22;14613;46.308;25.288;2022-08-21T09:30:34;34.50;54.70
27072;DHT22;14613;46.308;25.288;2022-08-21T09:33:00;34.60;54.60
27072;DHT22;14613;46.308;25.288;2022-08-21T09:35:26;34.70;54.40
27072;DHT22;14613;46.308;25.288;2022-08-21T09:38:05;34.80;53.80
27072;DHT22;14613;46.308;25.288;2022-08-21T09:40:40;34.80;53.50
27072;DHT22;14613;46.308;25.288;2022-08-21T09:43:10;34.80;53.60
27072;DHT22;14613;46.308;25.288;2022-08-21T09:45:43;35.00;53.50
27072;DHT22;14613;46.308;25.288;2022-08-21T09:48:13;35.10;53.50
27072;DHT22;14613;46.308;25.288;2022-08-21T09:50:39;35.10;53.10
27072;DHT22;14613;46.308;25.288;2022-08-21T09:53:18;35.20;52.80
27072;DHT22;14613;46.308;25.288;2022-08-21T09:56:05;35.30;52.30
27072;DHT22;14613;46.308;25.288;2022-08-21T09:58:59;35.40;52.30
27072;DHT22;14613;46.308;25.288;2022-08-21T10:01:26;35.50;52.50
27072;DHT22;14613;46.308;25.288;2022-08-21T10:04:07;35.60;52.20
27072;DHT22;14613;46.308;25.288;2022-08-21T10:06:33;35.70;52.00
27072;DHT22;14613;46.308;25.288;2022-08-21T10:09:15;35.70;51.80
27072;DHT22;14613;46.308;25.288;2022-08-21T10:11:52;35.60;51.00
27072;DHT22;14613;46.308;25.288;2022-08-21T10:36:27;36.30;50.10
27072;DHT22;14613;46.308;25.288;2022-08-21T10:39:03;36.50;49.80
27072;DHT22;14613;46.308;25.288;2022-08-21T10:47:18;36.40;48.90
27072;DHT22;14613;46.308;25.288;2022-08-21T10:58:30;36.00;49.10
27072;DHT22;14613;46.308;25.288;2022-08-21T11:01:22;36.10;48.50
27072;DHT22;14613;46.308;25.288;2022-08-21T11:04:13;35.70;47.30
27072;DHT22;14613;46.308;25.288;2022-08-21T11:06:47;35.10;47.70
27072;DHT22;14613;46.308;25.288;2022-08-21T11:09:19;34.90;48.40
27072;DHT22;14613;46.308;25.288;2022-08-21T11:12:10;34.80;48.40
27072;DHT22;14613;46.308;25.288;2022-08-21T11:14:49;34.80;48.40
27072;DHT22;14613;46.308;25.288;2022-08-21T11:17:45;34.80;47.80
27072;DHT22;14613;46.308;25.288;2022-08-21T11:21:01;34.60;47.80
27072;DHT22;14613;46.308;25.288;2022-08-21T11:23:42;34.70;48.50
27072;DHT22;14613;46.308;25.288;2022-08-21T11:26:21;34.90;48.90
27072;DHT22;14613;46.308;25.288;2022-08-21T11:28:55;35.20;48.80
27072;DHT22;14613;46.308;25.288;2022-08-21T11:36:54;35.90;48.10
27072;DHT22;14613;46.308;25.288;2022-08-21T11:39:46;36.10;47.50
27072;DHT22;14613;46.308;25.288;2022-08-21T11:42:50;36.20;47.20
27072;DHT22;14613;46.308;25.288;2022-08-21T11:48:12;36.60;47.20
27072;DHT22;14613;46.308;25.288;2022-08-21T11:50:43;36.70;47.20
27072;DHT22;14613;46.308;25.288;2022-08-21T11:56:14;36.80;46.40
27072;DHT22;14613;46.308;25.288;2022-08-21T11:58:50;36.70;46.60
27072;DHT22;14613;46.308;25.288;2022-08-21T12:01:23;36.80;45.90
27072;DHT22;14613;46.308;25.288;2022-08-21T12:04:10;36.80;45.50
27072;DHT22;14613;46.308;25.288;2022-08-21T12:06:41;36.60;45.50
27072;DHT22;14613;46.308;25.288;2022-08-21T12:09:32;36.50;45.80
27072;DHT22;14613;46.308;25.288;2022-08-21T12:17:36;36.70;45.70
27072;DHT22;14613;46.308;25.288;2022-08-21T12:28:32;37.00;45.20
27072;DHT22;14613;46.308;25.288;2022-08-21T12:30:58;37.00;45.40
27072;DHT22;14613;46.308;25.288;2022-08-21T12:33:38;37.10;45.20
27072;DHT22;14613;46.308;25.288;2022-08-21T12:36:14;37.10;45.00
27072;DHT22;14613;46.308;25.288;2022-08-21T12:41:24;37.20;44.70
27072;DHT22;14613;46.308;25.288;2022-08-21T12:46:35;37.20;44.00
27072;DHT22;14613;46.308;25.288;2022-08-21T12:54:43;37.20;44.20
27072;DHT22;14613;46.308;25.288;2022-08-21T12:57:18;37.20;44.20
27072;DHT22;14613;46.308;25.288;2022-08-21T12:59:44;37.10;44.00
27072;DHT22;14613;46.308;25.288;2022-08-21T13:02:17;36.80;44.70
27072;DHT22;14613;46.308;25.288;2022-08-21T13:04:44;36.40;44.50
27072;DHT22;14613;46.308;25.288;2022-08-21T13:07:15;35.90;44.90
27072;DHT22;14613;46.308;25.288;2022-08-21T13:09:54;35.30;45.30
27072;DHT22;14613;46.308;25.288;2022-08-21T13:12:21;35.00;46.30
27072;DHT22;14613;46.308;25.288;2022-08-21T13:14:50;34.50;46.80
27072;DHT22;14613;46.308;25.288;2022-08-21T13:17:19;34.00;47.40
27072;DHT22;14613;46.308;25.288;2022-08-21T13:20:08;33.50;48.00
27072;DHT22;14613;46.308;25.288;2022-08-21T13:22:42;32.70;49.30
27072;DHT22;14613;46.308;25.288;2022-08-21T13:25:15;31.90;51.30
27072;DHT22;14613;46.308;25.288;2022-08-21T13:27:42;31.50;52.40
27072;DHT22;14613;46.308;25.288;2022-08-21T13:30:18;31.30;52.90
27072;DHT22;14613;46.308;25.288;2022-08-21T13:32:48;31.30;53.40
27072;DHT22;14613;46.308;25.288;2022-08-21T13:35:23;31.30;53.60
27072;DHT22;14613;46.308;25.288;2022-08-21T13:37:50;31.30;54.10
27072;DHT22;14613;46.308;25.288;2022-08-21T13:40:25;31.20;54.20
27072;DHT22;14613;46.308;25.288;2022-08-21T13:42:52;30.90;54.60
27072;DHT22;14613;46.308;25.288;2022-08-21T13:45:31;30.60;54.90
27072;DHT22;14613;46.308;25.288;2022-08-21T13:48:00;30.20;55.30
27072;DHT22;14613;46.308;25.288;2022-08-21T13:50:26;29.80;55.60
27072;DHT22;14613;46.308;25.288;2022-08-21T13:52:59;29.40;56.00
27072;DHT22;14613;46.308;25.288;2022-08-21T13:55:40;29.10;56.70
27072;DHT22;14613;46.308;25.288;2022-08-21T13:58:08;28.70;57.30
27072;DHT22;14613;46.308;25.288;2022-08-21T14:00:44;28.50;57.40
27072;DHT22;14613;46.308;25.288;2022-08-21T14:03:11;28.40;57.80
27072;DHT22;14613;46.308;25.288;2022-08-21T14:05:45;28.30;58.00
27072;DHT22;14613;46.308;25.288;2022-08-21T14:08:14;28.10;58.30
27072;DHT22;14613;46.308;25.288;2022-08-21T14:10:45;28.00;58.60
27072;DHT22;14613;46.308;25.288;2022-08-21T14:16:29;27.50;59.60
27072;DHT22;14613;46.308;25.288;2022-08-21T14:19:08;27.20;60.10
27072;DHT22;14613;46.308;25.288;2022-08-21T14:21:37;26.90;60.70
27072;DHT22;14613;46.308;25.288;2022-08-21T14:24:10;26.70;61.50
27072;DHT22;14613;46.308;25.288;2022-08-21T14:26:48;26.50;62.10
27072;DHT22;14613;46.308;25.288;2022-08-21T14:29:17;26.30;62.80
27072;DHT22;14613;46.308;25.288;2022-08-21T14:31:43;26.00;63.30
27072;DHT22;14613;46.308;25.288;2022-08-21T14:34:13;25.90;63.90
27072;DHT22;14613;46.308;25.288;2022-08-21T14:36:40;25.70;64.40
27072;DHT22;14613;46.308;25.288;2022-08-21T14:39:06;25.60;64.80
27072;DHT22;14613;46.308;25.288;2022-08-21T14:41:33;25.60;65.20
27072;DHT22;14613;46.308;25.288;2022-08-21T14:43:59;25.50;65.20
27072;DHT22;14613;46.308;25.288;2022-08-21T14:46:27;25.40;65.30
27072;DHT22;14613;46.308;25.288;2022-08-21T14:48:54;25.40;65.40
27072;DHT22;14613;46.308;25.288;2022-08-21T14:51:20;25.40;65.40
27072;DHT22;14613;46.308;25.288;2022-08-21T14:53:46;25.30;65.30
27072;DHT22;14613;46.308;25.288;2022-08-21T14:56:12;25.30;65.60
27072;DHT22;14613;46.308;25.288;2022-08-21T14:58:42;25.20;65.70
27072;DHT22;14613;46.308;25.288;2022-08-21T15:01:10;25.10;66.00
27072;DHT22;14613;46.308;25.288;2022-08-21T15:03:37;24.90;66.40
27072;DHT22;14613;46.308;25.288;2022-08-21T15:06:05;24.70;67.10
27072;DHT22;14613;46.308;25.288;2022-08-21T15:08:31;24.50;67.70
27072;DHT22;14613;46.308;25.288;2022-08-21T15:10:58;24.40;68.20
27072;DHT22;14613;46.308;25.288;2022-08-21T15:13:24;24.20;69.10
27072;DHT22;14613;46.308;25.288;2022-08-21T15:15:51;23.90;70.60
27072;DHT22;14613;46.308;25.288;2022-08-21T15:18:22;23.70;72.10
27072;DHT22;14613;46.308;25.288;2022-08-21T15:20:49;23.50;73.10
27072;DHT22;14613;46.308;25.288;2022-08-21T15:23:15;23.40;73.90
27072;DHT22;14613;46.308;25.288;2022-08-21T15:25:47;23.40;75.30
27072;DHT22;14613;46.308;25.288;2022-08-21T15:28:14;23.40;75.10
27072;DHT22;14613;46.308;25.288;2022-08-21T15:30:41;23.30;75.40
27072;DHT22;14613;46.308;25.288;2022-08-21T15:33:07;23.20;76.20
27072;DHT22;14613;46.308;25.288;2022-08-21T15:35:33;23.00;76.80
27072;DHT22;14613;46.308;25.288;2022-08-21T15:37:59;22.90;77.40
27072;DHT22;14613;46.308;25.288;2022-08-21T15:40:25;22.80;77.80
27072;DHT22;14613;46.308;25.288;2022-08-21T15:42:56;22.70;78.20
27072;DHT22;14613;46.308;25.288;2022-08-21T15:45:22;22.60;79.00
27072;DHT22;14613;46.308;25.288;2022-08-21T15:47:49;22.60;79.40
27072;DHT22;14613;46.308;25.288;2022-08-21T15:50:16;22.60;79.90
27072;DHT22;14613;46.308;25.288;2022-08-21T15:52:41;22.50;80.10
27072;DHT22;14613;46.308;25.288;2022-08-21T15:55:09;22.40;80.30
27072;DHT22;14613;46.308;25.288;2022-08-21T15:57:37;22.50;80.60
27072;DHT22;14613;46.308;25.288;2022-08-21T16:00:07;22.60;80.80
27072;DHT22;14613;46.308;25.288;2022-08-21T16:02:37;22.50;80.90
27072;DHT22;14613;46.308;25.288;2022-08-21T16:05:04;22.50;81.10
27072;DHT22;14613;46.308;25.288;2022-08-21T16:07:30;22.60;81.40
27072;DHT22;14613;46.308;25.288;2022-08-21T16:09:55;22.50;81.50
27072;DHT22;14613;46.308;25.288;2022-08-21T16:12:27;22.60;81.60
27072;DHT22;14613;46.308;25.288;2022-08-21T16:14:56;22.70;81.80
27072;DHT22;14613;46.308;25.288;2022-08-21T16:17:31;22.70;81.60
27072;DHT22;14613;46.308;25.288;2022-08-21T16:19:57;22.70;81.80
27072;DHT22;14613;46.308;25.288;2022-08-21T16:22:25;22.80;81.50
27072;DHT22;14613;46.308;25.288;2022-08-21T16:24:51;22.90;81.50
27072;DHT22;14613;46.308;25.288;2022-08-21T16:27:17;22.90;81.50
27072;DHT22;14613;46.308;25.288;2022-08-21T16:29:44;23.00;81.50
27072;DHT22;14613;46.308;25.288;2022-08-21T16:32:11;23.00;81.40
27072;DHT22;14613;46.308;25.288;2022-08-21T16:34:41;23.00;81.60
27072;DHT22;14613;46.308;25.288;2022-08-21T16:37:19;22.90;82.00
27072;DHT22;14613;46.308;25.288;2022-08-21T16:39:46;22.90;82.40
27072;DHT22;14613;46.308;25.288;2022-08-21T16:42:16;22.90;82.60
27072;DHT22;14613;46.308;25.288;2022-08-21T16:44:42;22.80;82.90
27072;DHT22;14613;46.308;25.288;2022-08-21T16:47:08;22.80;82.90
27072;DHT22;14613;46.308;25.288;2022-08-21T16:49:34;22.90;83.20
27072;DHT22;14613;46.308;25.288;2022-08-21T16:52:00;22.80;83.20
27072;DHT22;14613;46.308;25.288;2022-08-21T16:54:26;22.80;83.30
27072;DHT22;14613;46.308;25.288;2022-08-21T16:56:53;22.80;83.40
27072;DHT22;14613;46.308;25.288;2022-08-21T16:59:19;22.80;83.50
27072;DHT22;14613;46.308;25.288;2022-08-21T17:01:45;22.70;83.70
27072;DHT22;14613;46.308;25.288;2022-08-21T17:04:11;22.70;84.00